sensor_id;sensor_type;location;lat;lon;timestamp;temperature;humidity
11934;DHT22;6026;48.784;9.198;2022-07-10T00:00:07;17.70;99.90
11934;DHT22;6026;48.784;9.198;2022-07-10T00:02:33;17.70;99.90
11934;DHT22;6026;48.784;9.198;2022-07-10T00:04:58;17.70;99.90
11934;DHT22;6026;48.784;9.198;2022-07-10T00:07:24;17.80;99.90
11934;DHT22;6026;48.784;9.198;2022-07-10T00:09:50;17.80;99.90
11934;DHT22;6026;48.784;9.198;2022-07-10T00:12:15;17.80;99.90
11934;DHT22;6026;48.784;9.198;2022-07-10T00:14:41;17.80;99.90
11934;DHT22;6026;48.784;9.198;2022-07-10T00:17:06;17.80;99.90
11934;DHT22;6026;48.784;9.198;2022-07-10T00:19:32;17.80;99.90
11934;DHT22;6026;48.784;9.198;2022-07-10T00:21:57;17.80;99.90
11934;DHT22;6026;48.784;9.198;2022-07-10T00:24:23;17.70;99.90
11934;DHT22;6026;48.784;9.198;2022-07-10T00:26:48;17.80;99.90
11934;DHT22;6026;48.784;9.198;2022-07-10T00:29:15;17.70;99.90
11934;DHT22;6026;48.784;9.198;2022-07-10T00:31:41;17.70;99.90
11934;DHT22;6026;48.784;9.198;2022-07-10T00:34:06;17.70;99.90
11934;DHT22;6026;48.784;9.198;2022-07-10T00:36:32;17.80;99.90
11934;DHT22;6026;48.784;9.198;2022-07-10T00:38:58;17.80;99.90
11934;DHT22;6026;48.784;9.198;2022-07-10T00:41:24;17.70;99.90
11934;DHT22;6026;48.784;9.198;2022-07-10T00:43:54;17.70;99.90
11934;DHT22;6026;48.784;9.198;2022-07-10T00:46:19;17.80;99.90
11934;DHT22;6026;48.784;9.198;2022-07-10T00:48:46;17.80;99.90
11934;DHT22;6026;48.784;9.198;2022-07-10T00:51:13;17.60;99.90
11934;DHT22;6026;48.784;9.198;2022-07-10T00:53:39;17.70;99.90
11934;DHT22;6026;48.784;9.198;2022-07-10T00:56:06;17.70;99.90
11934;DHT22;6026;48.784;9.198;2022-07-10T00:58:33;17.70;99.90
11934;DHT22;6026;48.784;9.198;2022-07-10T01:00:59;17.70;99.90
11934;DHT22;6026;48.784;9.198;2022-07-10T01:03:25;17.60;99.90
11934;DHT22;6026;48.784;9.198;2022-07-10T01:05:51;17.50;99.90
11934;DHT22;6026;48.784;9.198;2022-07-10T01:08:16;17.50;99.90
11934;DHT22;6026;48.784;9.198;2022-07-10T01:10:42;17.50;99.90
11934;DHT22;6026;48.784;9.198;2022-07-10T01:13:08;17.50;99.90
11934;DHT22;6026;48.784;9.198;2022-07-10T01:15:34;17.50;99.90
11934;DHT22;6026;48.784;9.198;2022-07-10T01:18:01;17.50;99.90
11934;DHT22;6026;48.784;9.198;2022-07-10T01:20:31;17.50;99.90
11934;DHT22;6026;48.784;9.198;2022-07-10T01:23:00;17.50;99.90
11934;DHT22;6026;48.784;9.198;2022-07-10T01:25:26;17.40;99.90
11934;DHT22;6026;48.784;9.198;2022-07-10T01:27:52;17.40;99.90
11934;DHT22;6026;48.784;9.198;2022-07-10T01:30:18;17.40;99.90
11934;DHT22;6026;48.784;9.198;2022-07-10T01:32:44;17.40;99.90
11934;DHT22;6026;48.784;9.198;2022-07-10T01:35:11;17.30;99.90
11934;DHT22;6026;48.784;9.198;2022-07-10T01:37:37;17.30;99.90
11934;DHT22;6026;48.784;9.198;2022-07-10T01:40:03;17.30;99.90
11934;DHT22;6026;48.784;9.198;2022-07-10T01:42:29;17.30;99.90
11934;DHT22;6026;48.784;9.198;2022-07-10T01:44:55;17.30;99.90
11934;DHT22;6026;48.784;9.198;2022-07-10T01:47:21;17.30;99.90
11934;DHT22;6026;48.784;9.198;2022-07-10T01:49:50;17.30;99.90
11934;DHT22;6026;48.784;9.198;2022-07-10T01:52:16;17.20;99.90
11934;DHT22;6026;48.784;9.198;2022-07-10T01:54:41;17.20;99.90
11934;DHT22;6026;48.784;9.198;2022-07-10T01:57:07;17.20;99.90
11934;DHT22;6026;48.784;9.198;2022-07-10T01:59:33;17.10;99.90
11934;DHT22;6026;48.784;9.198;2022-07-10T02:01:58;17.10;99.90
11934;DHT22;6026;48.784;9.198;2022-07-10T02:04:24;17.10;99.90
11934;DHT22;6026;48.784;9.198;2022-07-10T02:07:08;17.00;99.90
11934;DHT22;6026;48.784;9.198;2022-07-10T02:09:34;17.00;99.90
11934;DHT22;6026;48.784;9.198;2022-07-10T02:12:00;16.90;99.90
11934;DHT22;6026;48.784;9.198;2022-07-10T02:14:26;16.90;99.90
11934;DHT22;6026;48.784;9.198;2022-07-10T02:16:52;16.80;99.90
11934;DHT22;6026;48.784;9.198;2022-07-10T02:19:17;16.90;99.90
11934;DHT22;6026;48.784;9.198;2022-07-10T02:21:43;16.80;99.90
11934;DHT22;6026;48.784;9.198;2022-07-10T02:24:09;16.80;99.90
11934;DHT22;6026;48.784;9.198;2022-07-10T02:26:34;16.70;99.90
11934;DHT22;6026;48.784;9.198;2022-07-10T02:29:00;16.80;99.90
11934;DHT22;6026;48.784;9.198;2022-07-10T02:31:25;16.70;99.90
11934;DHT22;6026;48.784;9.198;2022-07-10T02:33:51;16.70;99.90
11934;DHT22;6026;48.784;9.198;2022-07-10T02:36:16;16.70;99.90
11934;DHT22;6026;48.784;9.198;2022-07-10T02:38:42;16.70;99.90
11934;DHT22;6026;48.784;9.198;2022-07-10T02:41:08;16.70;99.90
11934;DHT22;6026;48.784;9.198;2022-07-10T02:43:33;16.70;99.90
11934;DHT22;6026;48.784;9.198;2022-07-10T02:45:59;16.70;99.90
11934;DHT22;6026;48.784;9.198;2022-07-10T02:48:24;16.70;99.90
11934;DHT22;6026;48.784;9.198;2022-07-10T02:50:50;16.70;99.90
11934;DHT22;6026;48.784;9.198;2022-07-10T02:53:16;16.60;99.90
11934;DHT22;6026;48.784;9.198;2022-07-10T02:55:41;16.70;99.90
11934;DHT22;6026;48.784;9.198;2022-07-10T02:58:07;16.60;99.90
11934;DHT22;6026;48.784;9.198;2022-07-10T03:00:35;16.60;99.90
11934;DHT22;6026;48.784;9.198;2022-07-10T03:03:01;16.60;99.90
11934;DHT22;6026;48.784;9.198;2022-07-10T03:05:26;16.60;99.90
11934;DHT22;6026;48.784;9.198;2022-07-10T03:07:52;16.60;99.90
11934;DHT22;6026;48.784;9.198;2022-07-10T03:10:17;16.60;99.90
11934;DHT22;6026;48.784;9.198;2022-07-10T03:12:43;16.60;99.90
11934;DHT22;6026;48.784;9.198;2022-07-10T03:15:09;16.60;99.90
11934;DHT22;6026;48.784;9.198;2022-07-10T03:17:35;16.70;99.90
11934;DHT22;6026;48.784;9.198;2022-07-10T03:20:00;16.60;99.90
11934;DHT22;6026;48.784;9.198;2022-07-10T03:22:26;16.60;99.90
11934;DHT22;6026;48.784;9.198;2022-07-10T03:24:54;16.70;99.90
11934;DHT22;6026;48.784;9.198;2022-07-10T03:27:19;16.60;99.90
11934;DHT22;6026;48.784;9.198;2022-07-10T03:29:45;16.60;99.90
11934;DHT22;6026;48.784;9.198;2022-07-10T03:32:11;16.60;99.90
11934;DHT22;6026;48.784;9.198;2022-07-10T03:34:37;16.60;99.90
11934;DHT22;6026;48.784;9.198;2022-07-10T03:37:03;16.60;99.90
11934;DHT22;6026;48.784;9.198;2022-07-10T03:39:28;16.60;99.90
11934;DHT22;6026;48.784;9.198;2022-07-10T03:41:54;16.50;99.90
11934;DHT22;6026;48.784;9.198;2022-07-10T03:44:20;16.50;99.90
11934;DHT22;6026;48.784;9.198;2022-07-10T03:46:45;16.50;99.90
11934;DHT22;6026;48.784;9.198;2022-07-10T03:49:11;16.40;99.90
11934;DHT22;6026;48.784;9.198;2022-07-10T03:51:37;16.40;99.90
11934;DHT22;6026;48.784;9.198;2022-07-10T03:54:02;16.40;99.90
11934;DHT22;6026;48.784;9.198;2022-07-10T03:56:28;16.40;99.90
11934;DHT22;6026;48.784;9.198;2022-07-10T03:59:12;16.30;99.90
11934;DHT22;6026;48.784;9.198;2022-07-10T04:01:37;16.30;99.90
11934;DHT22;6026;48.784;9.198;2022-07-10T04:04:03;16.20;99.90
11934;DHT22;6026;48.784;9.198;2022-07-10T04:06:29;16.30;99.90
11934;DHT22;6026;48.784;9.198;2022-07-10T04:08:54;16.30;99.90
11934;DHT22;6026;48.784;9.198;2022-07-10T04:11:20;16.30;99.90
11934;DHT22;6026;48.784;9.198;2022-07-10T04:13:46;16.20;99.90
11934;DHT22;6026;48.784;9.198;2022-07-10T04:16:11;16.20;99.90
11934;DHT22;6026;48.784;9.198;2022-07-10T04:18:42;16.30;99.90
11934;DHT22;6026;48.784;9.198;2022-07-10T04:21:08;16.20;99.90
11934;DHT22;6026;48.784;9.198;2022-07-10T04:23:33;16.30;99.90
11934;DHT22;6026;48.784;9.198;2022-07-10T04:26:00;16.30;99.90
11934;DHT22;6026;48.784;9.198;2022-07-10T04:28:25;16.30;99.90
11934;DHT22;6026;48.784;9.198;2022-07-10T04:30:51;16.40;99.90
11934;DHT22;6026;48.784;9.198;2022-07-10T04:33:17;16.40;99.90
11934;DHT22;6026;48.784;9.198;2022-07-10T04:35:42;16.40;99.90
11934;DHT22;6026;48.784;9.198;2022-07-10T04:38:08;16.40;99.90
11934;DHT22;6026;48.784;9.198;2022-07-10T04:40:34;16.40;99.90
11934;DHT22;6026;48.784;9.198;2022-07-10T04:42:59;16.40;99.90
11934;DHT22;6026;48.784;9.198;2022-07-10T04:45:25;16.40;99.90
11934;DHT22;6026;48.784;9.198;2022-07-10T04:47:52;16.40;99.90
11934;DHT22;6026;48.784;9.198;2022-07-10T04:50:17;16.40;99.90
11934;DHT22;6026;48.784;9.198;2022-07-10T04:52:43;16.40;99.90
11934;DHT22;6026;48.784;9.198;2022-07-10T04:55:09;16.40;99.90
11934;DHT22;6026;48.784;9.198;2022-07-10T04:57:35;16.40;99.90
11934;DHT22;6026;48.784;9.198;2022-07-10T05:00:00;16.40;99.90
11934;DHT22;6026;48.784;9.198;2022-07-10T05:02:26;16.50;99.90
11934;DHT22;6026;48.784;9.198;2022-07-10T05:04:52;16.60;99.90
11934;DHT22;6026;48.784;9.198;2022-07-10T05:07:17;16.60;99.90
11934;DHT22;6026;48.784;9.198;2022-07-10T05:09:43;16.60;99.90
11934;DHT22;6026;48.784;9.198;2022-07-10T05:12:09;16.60;99.90
11934;DHT22;6026;48.784;9.198;2022-07-10T05:14:34;16.60;99.90
11934;DHT22;6026;48.784;9.198;2022-07-10T05:17:00;16.70;99.90
11934;DHT22;6026;48.784;9.198;2022-07-10T05:19:25;16.70;99.90
11934;DHT22;6026;48.784;9.198;2022-07-10T05:21:51;16.80;99.90
11934;DHT22;6026;48.784;9.198;2022-07-10T05:24:16;16.80;99.90
11934;DHT22;6026;48.784;9.198;2022-07-10T05:26:42;16.90;99.90
11934;DHT22;6026;48.784;9.198;2022-07-10T05:29:08;16.90;99.90
11934;DHT22;6026;48.784;9.198;2022-07-10T05:31:33;17.00;99.90
11934;DHT22;6026;48.784;9.198;2022-07-10T05:33:59;17.10;99.90
11934;DHT22;6026;48.784;9.198;2022-07-10T05:36:25;17.10;99.90
11934;DHT22;6026;48.784;9.198;2022-07-10T05:38:50;17.00;99.90
11934;DHT22;6026;48.784;9.198;2022-07-10T05:41:16;17.10;99.90
11934;DHT22;6026;48.784;9.198;2022-07-10T05:43:42;17.20;99.90
11934;DHT22;6026;48.784;9.198;2022-07-10T05:46:07;17.20;99.90
11934;DHT22;6026;48.784;9.198;2022-07-10T05:48:33;17.20;99.90
11934;DHT22;6026;48.784;9.198;2022-07-10T05:50:59;17.30;99.90
11934;DHT22;6026;48.784;9.198;2022-07-10T05:53:24;17.30;99.90
11934;DHT22;6026;48.784;9.198;2022-07-10T05:55:50;17.30;99.90
11934;DHT22;6026;48.784;9.198;2022-07-10T05:58:16;17.30;99.90
11934;DHT22;6026;48.784;9.198;2022-07-10T06:00:42;17.40;99.90
11934;DHT22;6026;48.784;9.198;2022-07-10T06:03:11;17.40;99.90
11934;DHT22;6026;48.784;9.198;2022-07-10T06:05:37;17.50;99.90
11934;DHT22;6026;48.784;9.198;2022-07-10T06:08:03;17.60;99.90
11934;DHT22;6026;48.784;9.198;2022-07-10T06:10:29;17.60;99.90
11934;DHT22;6026;48.784;9.198;2022-07-10T06:12:55;17.70;99.90
11934;DHT22;6026;48.784;9.198;2022-07-10T06:15:20;17.70;99.90
11934;DHT22;6026;48.784;9.198;2022-07-10T06:17:46;17.70;99.90
11934;DHT22;6026;48.784;9.198;2022-07-10T06:20:12;17.70;99.90
11934;DHT22;6026;48.784;9.198;2022-07-10T06:22:38;17.80;99.90
11934;DHT22;6026;48.784;9.198;2022-07-10T06:25:07;17.70;99.90
11934;DHT22;6026;48.784;9.198;2022-07-10T06:27:33;17.70;99.90
11934;DHT22;6026;48.784;9.198;2022-07-10T06:29:59;17.70;99.90
11934;DHT22;6026;48.784;9.198;2022-07-10T06:32:25;17.70;99.90
11934;DHT22;6026;48.784;9.198;2022-07-10T06:34:52;17.70;99.90
11934;DHT22;6026;48.784;9.198;2022-07-10T06:37:18;17.70;99.90
11934;DHT22;6026;48.784;9.198;2022-07-10T06:39:45;17.70;99.90
11934;DHT22;6026;48.784;9.198;2022-07-10T06:42:11;17.80;99.90
11934;DHT22;6026;48.784;9.198;2022-07-10T06:44:37;17.80;99.90
11934;DHT22;6026;48.784;9.198;2022-07-10T06:47:03;18.00;99.90
11934;DHT22;6026;48.784;9.198;2022-07-10T06:49:47;18.10;99.90
11934;DHT22;6026;48.784;9.198;2022-07-10T06:52:14;18.10;99.90
11934;DHT22;6026;48.784;9.198;2022-07-10T06:54:39;18.10;99.90
11934;DHT22;6026;48.784;9.198;2022-07-10T06:57:06;18.20;99.90
11934;DHT22;6026;48.784;9.198;2022-07-10T06:59:32;18.40;99.90
11934;DHT22;6026;48.784;9.198;2022-07-10T07:01:58;18.50;99.90
11934;DHT22;6026;48.784;9.198;2022-07-10T07:04:23;18.50;99.90
11934;DHT22;6026;48.784;9.198;2022-07-10T07:06:49;18.50;99.90
11934;DHT22;6026;48.784;9.198;2022-07-10T07:09:14;18.60;99.90
11934;DHT22;6026;48.784;9.198;2022-07-10T07:11:40;18.80;99.90
11934;DHT22;6026;48.784;9.198;2022-07-10T07:14:05;18.80;99.90
11934;DHT22;6026;48.784;9.198;2022-07-10T07:16:31;18.90;99.90
11934;DHT22;6026;48.784;9.198;2022-07-10T07:19:12;19.10;99.90
11934;DHT22;6026;48.784;9.198;2022-07-10T07:21:43;19.30;99.90
11934;DHT22;6026;48.784;9.198;2022-07-10T07:24:27;19.20;99.90
11934;DHT22;6026;48.784;9.198;2022-07-10T07:26:53;19.10;99.90
11934;DHT22;6026;48.784;9.198;2022-07-10T07:29:18;19.10;99.90
11934;DHT22;6026;48.784;9.198;2022-07-10T07:31:44;18.90;99.90
11934;DHT22;6026;48.784;9.198;2022-07-10T07:34:10;18.80;99.90
11934;DHT22;6026;48.784;9.198;2022-07-10T07:36:36;18.80;99.90
11934;DHT22;6026;48.784;9.198;2022-07-10T07:39:03;18.80;99.90
11934;DHT22;6026;48.784;9.198;2022-07-10T07:41:28;18.80;99.90
11934;DHT22;6026;48.784;9.198;2022-07-10T07:43:54;18.80;99.90
11934;DHT22;6026;48.784;9.198;2022-07-10T07:46:19;18.80;99.90
11934;DHT22;6026;48.784;9.198;2022-07-10T07:48:46;18.70;99.90
11934;DHT22;6026;48.784;9.198;2022-07-10T07:51:11;18.60;99.90
11934;DHT22;6026;48.784;9.198;2022-07-10T07:53:37;18.60;99.90
11934;DHT22;6026;48.784;9.198;2022-07-10T07:56:03;18.60;99.90
11934;DHT22;6026;48.784;9.198;2022-07-10T07:58:28;18.50;99.90
11934;DHT22;6026;48.784;9.198;2022-07-10T08:00:55;18.50;99.90
11934;DHT22;6026;48.784;9.198;2022-07-10T08:03:22;18.60;99.90
11934;DHT22;6026;48.784;9.198;2022-07-10T08:05:47;18.60;99.90
11934;DHT22;6026;48.784;9.198;2022-07-10T08:08:14;18.70;99.90
11934;DHT22;6026;48.784;9.198;2022-07-10T08:10:39;18.80;99.90
11934;DHT22;6026;48.784;9.198;2022-07-10T08:13:05;18.90;99.90
11934;DHT22;6026;48.784;9.198;2022-07-10T08:15:30;19.10;99.90
11934;DHT22;6026;48.784;9.198;2022-07-10T08:17:58;19.20;99.90
11934;DHT22;6026;48.784;9.198;2022-07-10T08:20:25;19.30;99.90
11934;DHT22;6026;48.784;9.198;2022-07-10T08:22:51;19.30;99.90
11934;DHT22;6026;48.784;9.198;2022-07-10T08:25:19;19.30;99.90
11934;DHT22;6026;48.784;9.198;2022-07-10T08:27:45;19.40;99.90
11934;DHT22;6026;48.784;9.198;2022-07-10T08:30:11;19.70;99.90
11934;DHT22;6026;48.784;9.198;2022-07-10T08:32:38;20.10;99.90
11934;DHT22;6026;48.784;9.198;2022-07-10T08:35:04;20.60;99.90
11934;DHT22;6026;48.784;9.198;2022-07-10T08:37:37;21.00;99.90
11934;DHT22;6026;48.784;9.198;2022-07-10T08:40:03;21.50;99.90
11934;DHT22;6026;48.784;9.198;2022-07-10T08:42:31;21.90;99.90
11934;DHT22;6026;48.784;9.198;2022-07-10T08:44:57;22.00;99.90
11934;DHT22;6026;48.784;9.198;2022-07-10T08:47:23;22.10;99.90
11934;DHT22;6026;48.784;9.198;2022-07-10T08:49:51;21.70;99.90
11934;DHT22;6026;48.784;9.198;2022-07-10T08:52:43;21.40;99.90
11934;DHT22;6026;48.784;9.198;2022-07-10T08:55:16;21.50;99.90
11934;DHT22;6026;48.784;9.198;2022-07-10T08:57:43;21.70;99.90
11934;DHT22;6026;48.784;9.198;2022-07-10T09:00:09;21.90;99.90
11934;DHT22;6026;48.784;9.198;2022-07-10T09:02:35;22.00;99.90
11934;DHT22;6026;48.784;9.198;2022-07-10T09:05:00;22.40;99.90
11934;DHT22;6026;48.784;9.198;2022-07-10T09:07:35;22.60;99.90
11934;DHT22;6026;48.784;9.198;2022-07-10T09:10:08;22.60;99.90
11934;DHT22;6026;48.784;9.198;2022-07-10T09:12:57;22.60;99.90
11934;DHT22;6026;48.784;9.198;2022-07-10T09:15:28;22.40;99.90
11934;DHT22;6026;48.784;9.198;2022-07-10T09:18:03;22.30;99.90
11934;DHT22;6026;48.784;9.198;2022-07-10T09:20:38;22.30;99.90
11934;DHT22;6026;48.784;9.198;2022-07-10T09:25:52;22.10;99.90
11934;DHT22;6026;48.784;9.198;2022-07-10T09:28:19;21.80;99.90
11934;DHT22;6026;48.784;9.198;2022-07-10T09:30:46;21.90;99.90
11934;DHT22;6026;48.784;9.198;2022-07-10T09:33:21;22.20;99.90
11934;DHT22;6026;48.784;9.198;2022-07-10T09:43:56;22.50;99.90
11934;DHT22;6026;48.784;9.198;2022-07-10T09:46:24;22.30;99.90
11934;DHT22;6026;48.784;9.198;2022-07-10T09:51:34;22.80;99.90
11934;DHT22;6026;48.784;9.198;2022-07-10T09:54:03;23.10;99.90
11934;DHT22;6026;48.784;9.198;2022-07-10T09:56:48;23.30;99.90
11934;DHT22;6026;48.784;9.198;2022-07-10T09:59:20;23.30;99.90
11934;DHT22;6026;48.784;9.198;2022-07-10T10:01:51;23.50;99.90
11934;DHT22;6026;48.784;9.198;2022-07-10T10:04:19;23.60;99.90
11934;DHT22;6026;48.784;9.198;2022-07-10T10:06:52;23.50;99.90
11934;DHT22;6026;48.784;9.198;2022-07-10T10:09:45;23.50;99.90
11934;DHT22;6026;48.784;9.198;2022-07-10T10:12:35;23.40;99.90
11934;DHT22;6026;48.784;9.198;2022-07-10T10:15:05;23.30;99.90
11934;DHT22;6026;48.784;9.198;2022-07-10T10:17:32;23.30;99.90
11934;DHT22;6026;48.784;9.198;2022-07-10T10:20:00;23.20;99.90
11934;DHT22;6026;48.784;9.198;2022-07-10T10:22:45;23.00;99.90
11934;DHT22;6026;48.784;9.198;2022-07-10T10:25:13;22.70;99.90
11934;DHT22;6026;48.784;9.198;2022-07-10T10:27:42;22.50;99.90
11934;DHT22;6026;48.784;9.198;2022-07-10T10:30:08;22.60;99.90
11934;DHT22;6026;48.784;9.198;2022-07-10T10:32:39;22.60;99.90
11934;DHT22;6026;48.784;9.198;2022-07-10T10:35:05;22.40;99.90
11934;DHT22;6026;48.784;9.198;2022-07-10T10:37:39;22.40;99.90
11934;DHT22;6026;48.784;9.198;2022-07-10T10:40:08;22.40;99.90
11934;DHT22;6026;48.784;9.198;2022-07-10T10:42:41;22.70;99.90
11934;DHT22;6026;48.784;9.198;2022-07-10T10:45:31;23.00;99.90
11934;DHT22;6026;48.784;9.198;2022-07-10T10:48:08;23.30;99.90
11934;DHT22;6026;48.784;9.198;2022-07-10T10:50:51;23.30;99.90
11934;DHT22;6026;48.784;9.198;2022-07-10T10:53:20;23.20;99.90
11934;DHT22;6026;48.784;9.198;2022-07-10T10:58:43;23.70;99.90
11934;DHT22;6026;48.784;9.198;2022-07-10T11:01:29;23.90;99.90
11934;DHT22;6026;48.784;9.198;2022-07-10T11:06:47;24.60;99.90
11934;DHT22;6026;48.784;9.198;2022-07-10T11:09:29;24.70;99.90
11934;DHT22;6026;48.784;9.198;2022-07-10T11:12:05;24.30;99.90
11934;DHT22;6026;48.784;9.198;2022-07-10T11:14:39;24.10;99.90
11934;DHT22;6026;48.784;9.198;2022-07-10T11:17:08;24.20;99.90
11934;DHT22;6026;48.784;9.198;2022-07-10T11:19:36;24.30;99.90
11934;DHT22;6026;48.784;9.198;2022-07-10T11:25:23;24.30;99.90
11934;DHT22;6026;48.784;9.198;2022-07-10T11:28:07;24.20;99.90
11934;DHT22;6026;48.784;9.198;2022-07-10T11:30:51;23.80;99.90
11934;DHT22;6026;48.784;9.198;2022-07-10T11:33:17;23.60;99.90
11934;DHT22;6026;48.784;9.198;2022-07-10T11:35:48;23.70;99.90
11934;DHT22;6026;48.784;9.198;2022-07-10T11:38:24;24.00;99.90
11934;DHT22;6026;48.784;9.198;2022-07-10T11:40:51;24.30;99.90
11934;DHT22;6026;48.784;9.198;2022-07-10T11:43:20;24.60;99.90
11934;DHT22;6026;48.784;9.198;2022-07-10T11:45:50;24.70;99.90
11934;DHT22;6026;48.784;9.198;2022-07-10T11:48:20;24.80;99.90
11934;DHT22;6026;48.784;9.198;2022-07-10T11:50:46;24.80;99.90
11934;DHT22;6026;48.784;9.198;2022-07-10T11:53:12;24.60;99.90
11934;DHT22;6026;48.784;9.198;2022-07-10T11:55:38;24.60;99.90
11934;DHT22;6026;48.784;9.198;2022-07-10T11:58:16;24.90;99.90
11934;DHT22;6026;48.784;9.198;2022-07-10T12:00:42;25.10;99.90
11934;DHT22;6026;48.784;9.198;2022-07-10T12:03:19;25.30;99.90
11934;DHT22;6026;48.784;9.198;2022-07-10T12:05:46;25.60;99.90
11934;DHT22;6026;48.784;9.198;2022-07-10T12:08:12;25.60;99.90
11934;DHT22;6026;48.784;9.198;2022-07-10T12:10:39;25.40;99.90
11934;DHT22;6026;48.784;9.198;2022-07-10T12:15:40;24.90;99.90
11934;DHT22;6026;48.784;9.198;2022-07-10T12:18:20;24.90;99.90
11934;DHT22;6026;48.784;9.198;2022-07-10T12:20:49;25.10;99.90
11934;DHT22;6026;48.784;9.198;2022-07-10T12:23:16;25.50;99.90
11934;DHT22;6026;48.784;9.198;2022-07-10T12:25:47;25.60;99.90
11934;DHT22;6026;48.784;9.198;2022-07-10T12:28:16;25.30;99.90
11934;DHT22;6026;48.784;9.198;2022-07-10T12:30:46;25.10;99.90
11934;DHT22;6026;48.784;9.198;2022-07-10T12:33:18;25.10;99.90
11934;DHT22;6026;48.784;9.198;2022-07-10T12:35:53;25.10;99.90
11934;DHT22;6026;48.784;9.198;2022-07-10T12:38:20;25.20;99.90
11934;DHT22;6026;48.784;9.198;2022-07-10T12:40:46;25.10;99.90
11934;DHT22;6026;48.784;9.198;2022-07-10T12:43:12;25.20;99.90
11934;DHT22;6026;48.784;9.198;2022-07-10T12:45:38;25.20;99.40
11934;DHT22;6026;48.784;9.198;2022-07-10T12:48:07;25.40;99.60
11934;DHT22;6026;48.784;9.198;2022-07-10T12:50:32;25.60;99.60
11934;DHT22;6026;48.784;9.198;2022-07-10T12:53:09;25.90;98.80
11934;DHT22;6026;48.784;9.198;2022-07-10T12:55:37;26.00;98.80
11934;DHT22;6026;48.784;9.198;2022-07-10T12:58:08;25.90;98.10
11934;DHT22;6026;48.784;9.198;2022-07-10T13:00:44;26.00;99.20
11934;DHT22;6026;48.784;9.198;2022-07-10T13:03:18;26.10;98.80
11934;DHT22;6026;48.784;9.198;2022-07-10T13:05:44;26.00;98.20
11934;DHT22;6026;48.784;9.198;2022-07-10T13:08:12;26.00;98.50
11934;DHT22;6026;48.784;9.198;2022-07-10T13:10:40;26.30;98.10
11934;DHT22;6026;48.784;9.198;2022-07-10T13:13:06;26.20;98.00
11934;DHT22;6026;48.784;9.198;2022-07-10T13:15:33;26.20;97.80
11934;DHT22;6026;48.784;9.198;2022-07-10T13:18:15;26.10;98.40
11934;DHT22;6026;48.784;9.198;2022-07-10T13:20:46;26.20;97.90
11934;DHT22;6026;48.784;9.198;2022-07-10T13:23:11;25.90;98.00
11934;DHT22;6026;48.784;9.198;2022-07-10T13:25:38;25.90;98.40
11934;DHT22;6026;48.784;9.198;2022-07-10T13:28:05;26.00;99.00
11934;DHT22;6026;48.784;9.198;2022-07-10T13:30:31;25.90;98.30
11934;DHT22;6026;48.784;9.198;2022-07-10T13:32:57;25.70;97.80
11934;DHT22;6026;48.784;9.198;2022-07-10T13:35:22;25.60;98.20
11934;DHT22;6026;48.784;9.198;2022-07-10T13:37:48;25.60;98.30
11934;DHT22;6026;48.784;9.198;2022-07-10T13:40:14;25.70;98.30
11934;DHT22;6026;48.784;9.198;2022-07-10T13:42:40;25.90;98.00
11934;DHT22;6026;48.784;9.198;2022-07-10T13:45:06;25.90;98.00
11934;DHT22;6026;48.784;9.198;2022-07-10T13:47:33;26.00;98.00
11934;DHT22;6026;48.784;9.198;2022-07-10T13:49:59;26.20;98.40
11934;DHT22;6026;48.784;9.198;2022-07-10T13:52:25;26.10;98.10
11934;DHT22;6026;48.784;9.198;2022-07-10T13:54:50;26.10;98.50
11934;DHT22;6026;48.784;9.198;2022-07-10T13:57:16;25.90;98.20
11934;DHT22;6026;48.784;9.198;2022-07-10T13:59:42;25.90;98.40
11934;DHT22;6026;48.784;9.198;2022-07-10T14:02:07;25.90;98.10
11934;DHT22;6026;48.784;9.198;2022-07-10T14:04:33;25.80;97.70
11934;DHT22;6026;48.784;9.198;2022-07-10T14:06:58;25.80;98.20
11934;DHT22;6026;48.784;9.198;2022-07-10T14:09:24;25.80;98.10
11934;DHT22;6026;48.784;9.198;2022-07-10T14:11:50;25.60;99.00
11934;DHT22;6026;48.784;9.198;2022-07-10T14:14:16;25.60;98.90
11934;DHT22;6026;48.784;9.198;2022-07-10T14:16:41;25.70;98.50
11934;DHT22;6026;48.784;9.198;2022-07-10T14:19:08;25.70;98.10
11934;DHT22;6026;48.784;9.198;2022-07-10T14:21:34;25.50;98.30
11934;DHT22;6026;48.784;9.198;2022-07-10T14:24:02;25.40;98.60
11934;DHT22;6026;48.784;9.198;2022-07-10T14:26:28;25.30;98.30
11934;DHT22;6026;48.784;9.198;2022-07-10T14:28:54;25.20;98.30
11934;DHT22;6026;48.784;9.198;2022-07-10T14:31:20;24.80;98.30
11934;DHT22;6026;48.784;9.198;2022-07-10T14:33:46;24.50;98.40
11934;DHT22;6026;48.784;9.198;2022-07-10T14:36:11;24.50;98.70
11934;DHT22;6026;48.784;9.198;2022-07-10T14:38:37;24.10;98.70
11934;DHT22;6026;48.784;9.198;2022-07-10T14:41:03;23.60;99.40
11934;DHT22;6026;48.784;9.198;2022-07-10T14:43:31;23.40;99.60
11934;DHT22;6026;48.784;9.198;2022-07-10T14:45:59;23.40;99.60
11934;DHT22;6026;48.784;9.198;2022-07-10T14:48:26;23.40;99.90
11934;DHT22;6026;48.784;9.198;2022-07-10T14:50:51;23.20;99.90
11934;DHT22;6026;48.784;9.198;2022-07-10T14:53:17;23.30;99.90
11934;DHT22;6026;48.784;9.198;2022-07-10T14:55:42;23.40;99.90
11934;DHT22;6026;48.784;9.198;2022-07-10T14:58:08;23.40;99.90
11934;DHT22;6026;48.784;9.198;2022-07-10T15:00:34;23.50;99.80
11934;DHT22;6026;48.784;9.198;2022-07-10T15:02:59;23.60;99.90
11934;DHT22;6026;48.784;9.198;2022-07-10T15:05:25;23.50;99.40
11934;DHT22;6026;48.784;9.198;2022-07-10T15:07:51;23.60;99.90
11934;DHT22;6026;48.784;9.198;2022-07-10T15:10:16;23.60;99.90
11934;DHT22;6026;48.784;9.198;2022-07-10T15:12:44;23.60;99.10
11934;DHT22;6026;48.784;9.198;2022-07-10T15:15:09;23.60;99.10
11934;DHT22;6026;48.784;9.198;2022-07-10T15:17:36;23.60;99.10
11934;DHT22;6026;48.784;9.198;2022-07-10T15:20:05;23.60;99.40
11934;DHT22;6026;48.784;9.198;2022-07-10T15:22:31;23.70;99.10
11934;DHT22;6026;48.784;9.198;2022-07-10T15:24:58;23.50;99.30
11934;DHT22;6026;48.784;9.198;2022-07-10T15:27:23;23.50;99.70
11934;DHT22;6026;48.784;9.198;2022-07-10T15:29:50;23.50;99.30
11934;DHT22;6026;48.784;9.198;2022-07-10T15:32:16;23.50;99.00
11934;DHT22;6026;48.784;9.198;2022-07-10T15:34:41;23.50;98.90
11934;DHT22;6026;48.784;9.198;2022-07-10T15:37:07;23.40;98.90
11934;DHT22;6026;48.784;9.198;2022-07-10T15:39:33;23.40;99.00
11934;DHT22;6026;48.784;9.198;2022-07-10T15:42:07;23.40;98.90
11934;DHT22;6026;48.784;9.198;2022-07-10T15:44:33;23.30;99.30
11934;DHT22;6026;48.784;9.198;2022-07-10T15:46:58;23.30;99.40
11934;DHT22;6026;48.784;9.198;2022-07-10T15:49:24;23.20;98.90
11934;DHT22;6026;48.784;9.198;2022-07-10T15:51:50;23.10;99.20
11934;DHT22;6026;48.784;9.198;2022-07-10T15:54:15;23.20;99.20
11934;DHT22;6026;48.784;9.198;2022-07-10T15:56:42;23.10;98.90
11934;DHT22;6026;48.784;9.198;2022-07-10T15:59:09;23.20;99.30
11934;DHT22;6026;48.784;9.198;2022-07-10T16:01:34;23.20;99.50
11934;DHT22;6026;48.784;9.198;2022-07-10T16:04:00;23.10;99.10
11934;DHT22;6026;48.784;9.198;2022-07-10T16:06:25;23.00;99.50
11934;DHT22;6026;48.784;9.198;2022-07-10T16:08:53;22.90;99.40
11934;DHT22;6026;48.784;9.198;2022-07-10T16:11:18;22.70;99.50